Time;durP1;ratioP1;P1;durP2;ratioP2;P2;SDS_P1;SDS_P2;PMS_P1;PMS_P2;Temp;Humidity;BMP_temperature;BMP_pressure;BME280_temperature;BME280_humidity;BME280_pressure;Samples;Min_cycle;Max_cycle;Signal;HPM_P1;HPM_P2
2022/03/06 00:02:11;;;;;;;27.00;16.27;;;0.20;99.90;;;;;;5028870;28;20628;-79
2022/03/06 00:04:36;;;;;;;24.13;15.17;;;0.10;99.90;;;;;;5031497;28;20283;-80
2022/03/06 00:07:02;;;;;;;26.37;16.70;;;0.00;99.90;;;;;;5031637;28;20311;-79
2022/03/06 00:09:28;;;;;;;25.47;17.10;;;0.10;99.90;;;;;;4995979;28;20053;-79
2022/03/06 00:11:54;;;;;;;25.30;16.20;;;0.10;99.90;;;;;;5006906;28;20037;-79
2022/03/06 00:14:20;;;;;;;25.87;16.50;;;0.00;99.90;;;;;;5014805;28;20032;-79
2022/03/06 00:16:46;;;;;;;27.13;16.53;;;0.00;99.90;;;;;;5014815;28;20287;-80
2022/03/06 00:19:12;;;;;;;27.77;16.93;;;0.00;99.90;;;;;;5014970;28;20127;-79
2022/03/06 00:21:39;;;;;;;25.83;16.10;;;0.00;99.90;;;;;;4998830;28;20292;-80
2022/03/06 00:24:06;;;;;;;25.43;16.90;;;0.00;99.90;;;;;;5014580;28;20869;-79
2022/03/06 00:26:32;;;;;;;23.30;15.50;;;0.00;99.90;;;;;;4998008;28;20314;-79
2022/03/06 00:28:58;;;;;;;26.20;16.10;;;0.00;99.90;;;;;;5031388;28;20789;-79
2022/03/06 00:31:24;;;;;;;25.37;16.20;;;0.00;99.90;;;;;;4997234;28;20351;-79
2022/03/06 00:33:51;;;;;;;25.23;16.03;;;0.00;99.90;;;;;;5024424;28;20041;-80
2022/03/06 00:36:18;;;;;;;29.10;17.07;;;0.10;99.90;;;;;;4998908;28;20378;-79
2022/03/06 00:38:44;;;;;;;26.70;15.20;;;0.10;99.90;;;;;;5015577;28;20844;-80
2022/03/06 00:41:12;;;;;;;25.40;15.03;;;0.10;99.90;;;;;;5015322;28;20401;-80
2022/03/06 00:43:37;;;;;;;26.23;17.07;;;0.10;99.90;;;;;;5031255;28;20291;-79
2022/03/06 00:46:03;;;;;;;25.37;15.97;;;0.10;99.90;;;;;;5031102;28;20301;-80
2022/03/06 00:48:29;;;;;;;23.03;14.53;;;0.10;99.90;;;;;;5012758;28;20044;-80
2022/03/06 00:50:55;;;;;;;26.37;15.60;;;0.10;99.90;;;;;;5031225;28;20040;-80
2022/03/06 00:53:20;;;;;;;26.80;15.80;;;0.20;99.90;;;;;;5014284;28;20044;-80
2022/03/06 00:55:46;;;;;;;30.90;16.87;;;0.10;99.90;;;;;;5014445;28;20029;-79
2022/03/06 00:58:12;;;;;;;22.63;15.47;;;0.20;99.90;;;;;;5014822;28;20136;-80
2022/03/06 01:00:45;;;;;;;24.83;14.97;;;0.20;99.90;;;;;;5031502;28;20464;-79
2022/03/06 01:03:14;;;;;;;24.03;14.23;;;0.20;99.90;;;;;;5031181;28;20087;-80
2022/03/06 01:05:41;;;;;;;24.13;14.90;;;0.20;99.90;;;;;;5031098;28;20337;-80
2022/03/06 01:08:07;;;;;;;24.13;15.00;;;0.30;99.90;;;;;;5030953;28;20305;-80
2022/03/06 01:10:35;;;;;;;23.73;14.63;;;0.20;99.90;;;;;;4994423;28;20367;-79
2022/03/06 01:13:00;;;;;;;26.70;15.90;;;0.30;99.90;;;;;;5006259;28;20276;-80
2022/03/06 01:15:26;;;;;;;25.60;15.63;;;0.30;99.90;;;;;;4992167;28;20353;-80
2022/03/06 01:17:52;;;;;;;23.13;14.67;;;0.30;99.90;;;;;;5024461;28;20496;-80
2022/03/06 01:20:19;;;;;;;22.67;14.80;;;0.20;99.90;;;;;;5014206;28;20037;-79
2022/03/06 01:22:46;;;;;;;24.37;15.50;;;0.30;99.90;;;;;;5030824;28;20060;-79
2022/03/06 01:25:12;;;;;;;22.07;13.83;;;0.30;99.90;;;;;;5030723;28;20298;-79
2022/03/06 01:27:37;;;;;;;23.53;14.77;;;0.30;99.90;;;;;;4997721;28;20370;-79
2022/03/06 01:30:08;;;;;;;22.83;14.53;;;0.30;99.90;;;;;;5015797;28;20120;-80
2022/03/06 01:32:34;;;;;;;22.20;14.47;;;0.30;99.90;;;;;;5032690;28;20043;-78
2022/03/06 01:35:00;;;;;;;22.50;14.20;;;0.30;99.90;;;;;;5016066;28;20280;-79
2022/03/06 01:37:26;;;;;;;19.47;12.23;;;0.30;99.90;;;;;;5013689;28;20496;-79
2022/03/06 01:39:53;;;;;;;24.70;14.03;;;0.30;99.90;;;;;;4985694;28;20288;-80
2022/03/06 01:42:19;;;;;;;18.47;12.60;;;0.30;99.90;;;;;;5009377;28;20543;-79
2022/03/06 01:44:52;;;;;;;19.17;13.33;;;0.40;99.90;;;;;;5011144;28;20362;-79
2022/03/06 01:47:41;;;;;;;19.80;12.93;;;0.40;99.90;;;;;;5030361;28;20300;-80
2022/03/06 01:50:16;;;;;;;21.33;12.53;;;0.50;99.90;;;;;;5022863;28;20280;-80
2022/03/06 01:52:43;;;;;;;22.63;12.37;;;0.50;99.90;;;;;;5013613;28;20639;-79
2022/03/06 01:55:09;;;;;;;20.67;12.57;;;0.40;99.90;;;;;;5012810;28;20284;-80
2022/03/06 01:57:36;;;;;;;22.70;12.87;;;0.40;99.90;;;;;;5019220;28;20322;-80
2022/03/06 02:00:06;;;;;;;24.07;12.83;;;0.50;99.90;;;;;;5010437;28;20291;-79
2022/03/06 02:02:34;;;;;;;17.37;11.17;;;0.50;99.90;;;;;;5030222;28;20287;-80
2022/03/06 02:05:00;;;;;;;18.60;12.00;;;0.50;99.90;;;;;;5030560;28;20280;-79
2022/03/06 02:07:27;;;;;;;17.37;12.00;;;0.50;99.90;;;;;;5016527;28;20299;-80
2022/03/06 02:09:53;;;;;;;19.33;12.13;;;0.60;99.90;;;;;;5016972;28;20060;-80
2022/03/06 02:12:26;;;;;;;16.20;11.30;;;0.60;99.90;;;;;;5016939;28;20372;-80
2022/03/06 02:14:59;;;;;;;17.53;10.87;;;0.60;99.90;;;;;;5016780;28;20825;-79
2022/03/06 02:17:25;;;;;;;17.97;11.40;;;0.60;99.90;;;;;;5016817;28;20293;-80
2022/03/06 02:19:51;;;;;;;18.73;11.67;;;0.70;99.90;;;;;;5033550;28;20287;-79
2022/03/06 02:22:21;;;;;;;15.90;11.30;;;0.60;99.90;;;;;;5034295;28;20294;-80
2022/03/06 02:24:47;;;;;;;16.73;10.90;;;0.60;99.90;;;;;;5032722;28;20053;-79
2022/03/06 02:27:13;;;;;;;16.50;11.10;;;0.70;99.90;;;;;;5033398;28;20295;-80
2022/03/06 02:29:43;;;;;;;15.43;11.00;;;0.70;99.90;;;;;;5016610;28;20333;-80
2022/03/06 02:32:17;;;;;;;17.87;11.33;;;0.70;99.90;;;;;;5032689;28;20083;-79
2022/03/06 02:34:45;;;;;;;17.40;10.50;;;0.70;99.90;;;;;;5031106;28;20323;-79
2022/03/06 02:37:11;;;;;;;15.50;10.37;;;0.70;99.90;;;;;;5017386;28;20288;-80
2022/03/06 02:39:37;;;;;;;17.13;10.30;;;0.80;99.90;;;;;;5015781;28;20302;-79
2022/03/06 02:42:04;;;;;;;15.73;10.27;;;0.80;99.90;;;;;;5000712;28;20762;-80
2022/03/06 02:44:30;;;;;;;15.47;10.60;;;0.80;99.90;;;;;;5017455;28;20284;-79
2022/03/06 02:46:56;;;;;;;17.17;11.50;;;0.80;99.90;;;;;;5016828;28;20299;-80
2022/03/06 02:49:22;;;;;;;18.40;10.87;;;0.80;99.90;;;;;;5016051;28;20298;-80
2022/03/06 02:51:48;;;;;;;15.53;11.10;;;0.80;99.90;;;;;;5016551;28;20037;-79
2022/03/06 02:54:17;;;;;;;15.57;11.20;;;0.80;99.90;;;;;;5033881;28;20280;-80
2022/03/06 02:56:44;;;;;;;16.10;10.40;;;0.80;99.90;;;;;;5013964;28;20761;-80
2022/03/06 02:59:10;;;;;;;13.03;10.00;;;0.80;99.90;;;;;;5015506;28;20362;-79
2022/03/06 03:01:41;;;;;;;16.20;10.53;;;0.80;99.90;;;;;;5017360;28;20315;-80
2022/03/06 03:04:08;;;;;;;12.67;9.70;;;0.90;99.90;;;;;;4999849;28;20290;-80
2022/03/06 03:06:34;;;;;;;15.13;10.40;;;0.80;99.90;;;;;;4998754;28;20299;-80
2022/03/06 03:09:01;;;;;;;13.67;10.70;;;0.80;99.90;;;;;;5015596;28;20287;-80
2022/03/06 03:11:29;;;;;;;18.03;10.57;;;0.70;99.90;;;;;;4996535;28;21104;-80
2022/03/06 03:13:54;;;;;;;17.97;10.63;;;0.70;99.90;;;;;;5015910;28;20284;-80
2022/03/06 03:16:20;;;;;;;15.77;10.43;;;0.70;99.90;;;;;;4996702;28;20284;-79
2022/03/06 03:18:46;;;;;;;17.70;10.87;;;0.70;99.90;;;;;;4992829;28;20442;-79
2022/03/06 03:21:11;;;;;;;14.53;10.30;;;0.60;99.90;;;;;;5016613;28;20052;-80
2022/03/06 03:23:37;;;;;;;16.20;10.30;;;0.70;99.90;;;;;;5016368;28;20515;-80
2022/03/06 03:26:03;;;;;;;13.23;10.27;;;0.70;99.90;;;;;;5032917;28;20103;-80
2022/03/06 03:28:28;;;;;;;15.37;10.67;;;0.60;99.90;;;;;;5015538;28;20501;-80
2022/03/06 03:30:54;;;;;;;15.53;10.50;;;0.60;99.90;;;;;;4997496;28;20041;-80
2022/03/06 03:33:20;;;;;;;13.87;10.13;;;0.60;99.90;;;;;;4999969;28;20033;-80
2022/03/06 03:35:45;;;;;;;15.43;10.97;;;0.50;99.90;;;;;;5016048;28;20476;-80
2022/03/06 03:38:11;;;;;;;17.03;11.70;;;0.50;99.90;;;;;;5015599;28;20040;-80
2022/03/06 03:40:37;;;;;;;15.13;10.70;;;0.50;99.90;;;;;;5006372;28;20397;-79
2022/03/06 03:43:02;;;;;;;14.30;11.20;;;0.50;99.90;;;;;;5015683;28;20037;-79
2022/03/06 03:45:28;;;;;;;15.33;11.13;;;0.40;99.90;;;;;;5015881;28;20041;-79
2022/03/06 03:47:54;;;;;;;15.73;10.83;;;0.40;99.90;;;;;;5015386;28;20037;-80
2022/03/06 03:50:20;;;;;;;14.33;11.20;;;0.30;99.90;;;;;;4999064;28;20086;-79
2022/03/06 03:52:45;;;;;;;16.33;11.57;;;0.40;99.90;;;;;;5015432;28;20052;-80
2022/03/06 03:55:11;;;;;;;14.67;11.07;;;0.40;99.90;;;;;;5015156;28;20075;-80
2022/03/06 03:57:37;;;;;;;14.40;11.37;;;0.40;99.90;;;;;;5013754;28;20051;-79
2022/03/06 04:00:05;;;;;;;15.17;10.20;;;0.30;99.90;;;;;;5031877;28;20273;-80
2022/03/06 04:02:32;;;;;;;12.50;10.63;;;0.40;99.90;;;;;;5008084;28;20045;-84
2022/03/06 04:04:57;;;;;;;13.70;10.00;;;0.30;99.90;;;;;;5018733;28;20287;-85
2022/03/06 04:07:23;;;;;;;12.83;9.73;;;0.30;99.90;;;;;;5034758;28;20685;-84
2022/03/06 04:09:49;;;;;;;14.23;9.93;;;0.40;99.90;;;;;;5037442;28;20037;-82
2022/03/06 04:12:15;;;;;;;14.10;9.77;;;0.40;99.90;;;;;;5009323;28;20041;-83
2022/03/06 04:14:40;;;;;;;11.73;9.30;;;0.30;99.90;;;;;;5020808;28;20041;-84
2022/03/06 04:17:06;;;;;;;12.63;9.10;;;0.30;99.90;;;;;;5014180;28;20124;-84
2022/03/06 04:19:32;;;;;;;17.00;9.07;;;0.30;99.90;;;;;;5015152;28;20381;-83
2022/03/06 04:21:58;;;;;;;14.87;8.77;;;0.30;99.90;;;;;;5033832;28;20393;-84
2022/03/06 04:24:23;;;;;;;12.43;8.83;;;0.30;99.90;;;;;;5033891;28;20061;-84
2022/03/06 04:26:49;;;;;;;16.90;9.47;;;0.30;99.90;;;;;;5001935;28;20041;-83
2022/03/06 04:29:15;;;;;;;12.87;8.57;;;0.30;99.90;;;;;;5016043;28;20048;-84
2022/03/06 04:31:40;;;;;;;11.20;8.37;;;0.30;99.90;;;;;;5017250;28;20036;-83
2022/03/06 04:34:06;;;;;;;12.57;8.73;;;0.20;99.90;;;;;;5017267;28;20041;-84
2022/03/06 04:36:32;;;;;;;12.87;8.60;;;0.20;99.90;;;;;;4998536;28;20037;-84
2022/03/06 04:38:58;;;;;;;12.13;8.47;;;0.20;99.90;;;;;;5033031;28;20049;-86
2022/03/06 04:41:24;;;;;;;12.47;8.43;;;0.10;99.90;;;;;;5000754;28;20044;-85
2022/03/06 04:43:53;;;;;;;13.53;8.33;;;0.10;99.90;;;;;;5017320;28;20349;-84
2022/03/06 04:46:19;;;;;;;10.77;7.53;;;0.20;99.90;;;;;;5017015;28;20303;-84
2022/03/06 04:48:45;;;;;;;12.70;8.00;;;0.20;99.90;;;;;;5017383;28;20367;-84
2022/03/06 04:51:11;;;;;;;12.47;8.07;;;0.20;99.90;;;;;;5033344;28;20358;-84
2022/03/06 04:53:36;;;;;;;13.80;7.77;;;0.10;99.90;;;;;;4998114;28;20105;-85
2022/03/06 04:56:04;;;;;;;12.07;7.73;;;0.10;99.90;;;;;;4992558;28;20107;-85
2022/03/06 04:58:30;;;;;;;14.87;7.53;;;0.10;99.90;;;;;;5016318;28;20064;-84
2022/03/06 05:00:56;;;;;;;10.97;7.00;;;0.10;99.90;;;;;;5016489;28;20280;-84
2022/03/06 05:03:22;;;;;;;12.53;7.70;;;0.10;99.90;;;;;;5016914;28;20287;-84
2022/03/06 05:05:49;;;;;;;12.63;7.63;;;0.20;99.90;;;;;;5026187;28;20404;-86
2022/03/06 05:08:15;;;;;;;13.60;8.30;;;0.20;99.90;;;;;;5031543;28;20308;-85
2022/03/06 05:10:41;;;;;;;8.87;7.60;;;0.10;99.90;;;;;;5019939;28;20298;-85
2022/03/06 05:13:07;;;;;;;10.60;6.47;;;0.10;99.90;;;;;;5016746;28;20275;-80
2022/03/06 05:15:33;;;;;;;12.43;7.60;;;0.10;99.90;;;;;;5014797;28;20894;-79
2022/03/06 05:18:01;;;;;;;10.47;7.07;;;0.10;99.90;;;;;;5014812;28;20045;-80
2022/03/06 05:20:27;;;;;;;9.00;7.30;;;0.10;99.90;;;;;;5030383;28;20485;-80
2022/03/06 05:22:53;;;;;;;14.40;7.80;;;0.10;99.90;;;;;;4998791;28;20416;-80
2022/03/06 05:25:18;;;;;;;11.90;6.97;;;0.10;99.90;;;;;;5014393;28;20390;-80
2022/03/06 05:27:44;;;;;;;12.47;7.10;;;0.10;99.90;;;;;;5012091;28;20041;-81
2022/03/06 05:30:11;;;;;;;11.63;7.73;;;0.10;99.90;;;;;;4979982;28;20500;-80
2022/03/06 05:32:38;;;;;;;11.57;6.70;;;0.10;99.90;;;;;;5004741;28;20041;-80
2022/03/06 05:35:04;;;;;;;11.97;7.43;;;0.10;99.90;;;;;;4996249;28;20322;-80
2022/03/06 05:37:30;;;;;;;10.53;6.80;;;0.10;99.90;;;;;;4996462;28;20401;-80
2022/03/06 05:39:56;;;;;;;10.37;6.73;;;0.10;99.90;;;;;;4999262;28;20286;-80
2022/03/06 05:42:22;;;;;;;9.67;6.97;;;0.10;99.90;;;;;;5030332;28;20291;-79
2022/03/06 05:44:47;;;;;;;11.07;6.80;;;0.10;99.90;;;;;;5035020;28;20041;-80
2022/03/06 05:47:13;;;;;;;11.80;7.20;;;0.10;99.90;;;;;;5009529;28;20057;-80
2022/03/06 05:49:39;;;;;;;10.30;6.07;;;0.00;99.90;;;;;;5034955;28;20045;-80
2022/03/06 05:52:05;;;;;;;10.37;6.50;;;0.10;99.90;;;;;;5034333;28;20037;-80
2022/03/06 05:54:31;;;;;;;10.47;6.83;;;0.00;99.90;;;;;;5018910;28;20049;-80
2022/03/06 05:56:57;;;;;;;11.40;6.97;;;0.10;99.90;;;;;;5017761;28;20778;-80
2022/03/06 05:59:23;;;;;;;8.97;6.17;;;0.00;99.90;;;;;;5000282;28;20044;-80
2022/03/06 06:01:49;;;;;;;12.00;6.53;;;0.00;99.90;;;;;;5034172;28;20322;-80
2022/03/06 06:04:15;;;;;;;11.00;6.30;;;0.00;99.90;;;;;;5017644;28;20778;-80
2022/03/06 06:06:41;;;;;;;11.53;6.37;;;0.00;99.90;;;;;;5016999;28;20041;-80
2022/03/06 06:09:07;;;;;;;10.97;6.13;;;-0.10;99.90;;;;;;5017311;28;20036;-79
2022/03/06 06:11:33;;;;;;;10.10;6.03;;;0.00;99.90;;;;;;5033475;28;20576;-79
2022/03/06 06:13:59;;;;;;;9.10;6.27;;;0.00;99.90;;;;;;5028925;28;20642;-80
2022/03/06 06:16:24;;;;;;;9.30;6.20;;;0.00;99.90;;;;;;5001592;28;20079;-80
2022/03/06 06:18:50;;;;;;;9.87;5.90;;;0.00;99.90;;;;;;5000906;28;20601;-80
2022/03/06 06:21:18;;;;;;;8.20;5.83;;;-0.10;99.90;;;;;;5032984;28;20049;-79
2022/03/06 06:23:45;;;;;;;9.07;5.97;;;-0.10;99.90;;;;;;5032025;28;21099;-79
2022/03/06 06:26:11;;;;;;;9.27;6.23;;;-0.10;99.90;;;;;;5042616;28;20287;-80
2022/03/06 06:28:37;;;;;;;10.90;6.37;;;-0.10;99.90;;;;;;4999746;28;20345;-80
2022/03/06 06:31:04;;;;;;;10.30;6.83;;;-0.10;99.90;;;;;;5007731;28;20284;-80
2022/03/06 06:33:29;;;;;;;8.40;5.77;;;-0.10;99.90;;;;;;5032706;28;20037;-80
2022/03/06 06:35:55;;;;;;;10.93;6.20;;;-0.10;99.90;;;;;;5016686;28;20683;-80
2022/03/06 06:38:21;;;;;;;12.03;6.60;;;-0.10;99.90;;;;;;5032960;28;20052;-80
2022/03/06 06:40:51;;;;;;;10.23;5.87;;;-0.10;99.90;;;;;;5000648;28;20048;-79
2022/03/06 06:43:18;;;;;;;11.43;6.07;;;-0.10;99.90;;;;;;5032188;28;20119;-79
2022/03/06 06:45:44;;;;;;;8.57;5.53;;;0.00;99.90;;;;;;5033222;28;20283;-79
2022/03/06 06:48:10;;;;;;;10.10;6.10;;;0.00;99.90;;;;;;5013008;28;20303;-80
2022/03/06 06:50:36;;;;;;;6.20;5.40;;;0.10;99.90;;;;;;5015396;28;20045;-80
2022/03/06 06:53:02;;;;;;;7.43;5.63;;;0.10;99.90;;;;;;5014413;28;20044;-80
2022/03/06 06:55:27;;;;;;;8.37;5.40;;;0.10;99.90;;;;;;5015843;28;20044;-80
2022/03/06 06:57:53;;;;;;;9.97;6.10;;;0.10;99.90;;;;;;5033066;28;20106;-80
2022/03/06 07:00:19;;;;;;;11.30;5.77;;;0.10;99.90;;;;;;5003633;28;20116;-80
2022/03/06 07:02:46;;;;;;;9.10;5.30;;;0.20;99.90;;;;;;5015884;28;20037;-80
2022/03/06 07:05:12;;;;;;;7.17;4.97;;;0.20;99.90;;;;;;5017387;28;20048;-80
2022/03/06 07:07:38;;;;;;;9.07;5.63;;;0.20;99.90;;;;;;4998559;28;20303;-80
2022/03/06 07:10:04;;;;;;;8.47;6.10;;;0.20;99.90;;;;;;5015762;28;20283;-80
2022/03/06 07:12:30;;;;;;;7.57;5.30;;;0.20;99.90;;;;;;5031866;28;20041;-80
2022/03/06 07:14:56;;;;;;;9.27;5.93;;;0.30;99.90;;;;;;4981988;28;20329;-80
2022/03/06 07:17:22;;;;;;;5.67;5.07;;;0.30;99.90;;;;;;5031965;28;20071;-80
2022/03/06 07:19:48;;;;;;;5.93;4.70;;;0.30;99.90;;;;;;5015322;28;20531;-79
2022/03/06 07:22:15;;;;;;;7.00;5.40;;;0.30;99.90;;;;;;4982852;28;20044;-80
2022/03/06 07:24:41;;;;;;;8.53;4.67;;;0.30;99.90;;;;;;5032878;28;20076;-80
2022/03/06 07:27:07;;;;;;;6.83;4.60;;;0.40;99.90;;;;;;4997821;28;20319;-80
2022/03/06 07:29:32;;;;;;;6.27;4.50;;;0.40;99.90;;;;;;5015760;28;20049;-80
2022/03/06 07:31:58;;;;;;;4.90;4.40;;;0.40;99.90;;;;;;4995881;28;20037;-83
2022/03/06 07:34:24;;;;;;;5.53;4.20;;;0.50;99.90;;;;;;5018516;28;20108;-83
2022/03/06 07:36:49;;;;;;;6.53;4.40;;;0.50;99.90;;;;;;4993873;28;20041;-83
2022/03/06 07:39:15;;;;;;;5.57;4.20;;;0.50;99.90;;;;;;5003308;28;20044;-84
2022/03/06 07:41:41;;;;;;;6.13;4.23;;;0.60;99.90;;;;;;5015456;28;20045;-84
2022/03/06 07:44:06;;;;;;;8.30;4.30;;;0.60;99.90;;;;;;5013904;28;20496;-82
2022/03/06 07:46:32;;;;;;;6.43;4.20;;;0.80;99.90;;;;;;5018139;28;20091;-84
2022/03/06 07:48:58;;;;;;;10.17;4.27;;;0.80;99.90;;;;;;4999157;28;20044;-83
2022/03/06 07:51:24;;;;;;;5.47;3.87;;;0.90;99.90;;;;;;5017927;28;20033;-83
2022/03/06 07:53:49;;;;;;;7.70;4.20;;;1.00;99.90;;;;;;5015499;28;20376;-83
2022/03/06 07:56:15;;;;;;;5.37;4.20;;;1.00;99.90;;;;;;5018322;28;20507;-82
2022/03/06 07:58:41;;;;;;;4.33;3.70;;;1.10;99.90;;;;;;5016969;28;20033;-83
2022/03/06 08:01:06;;;;;;;6.20;4.20;;;1.20;99.90;;;;;;5035172;28;20037;-84
2022/03/06 08:03:32;;;;;;;5.83;3.90;;;1.30;99.90;;;;;;5018640;28;20825;-85
2022/03/06 08:05:58;;;;;;;4.60;3.90;;;1.30;99.90;;;;;;5009343;28;20037;-88
2022/03/06 08:08:23;;;;;;;5.20;3.60;;;1.40;99.90;;;;;;5018882;28;20115;-84
2022/03/06 08:10:49;;;;;;;5.13;4.17;;;1.50;99.90;;;;;;5002836;28;20395;-84
2022/03/06 08:13:15;;;;;;;5.03;4.53;;;1.60;99.90;;;;;;4989896;28;20033;-84
2022/03/06 08:15:41;;;;;;;5.47;4.27;;;1.70;99.90;;;;;;5016277;28;20037;-85
2022/03/06 08:18:07;;;;;;;6.17;4.10;;;1.70;99.90;;;;;;4997254;28;20037;-84
2022/03/06 08:20:32;;;;;;;4.40;3.67;;;1.80;99.90;;;;;;5035706;28;20056;-84
2022/03/06 08:22:58;;;;;;;5.40;3.97;;;1.90;99.90;;;;;;5023951;28;20041;-84
2022/03/06 08:25:24;;;;;;;4.53;3.60;;;1.90;99.90;;;;;;5033435;28;20064;-84
2022/03/06 08:27:49;;;;;;;6.80;3.90;;;2.00;99.90;;;;;;4996940;28;20049;-84
2022/03/06 08:30:16;;;;;;;5.00;3.70;;;2.10;99.90;;;;;;4999778;28;20041;-85
2022/03/06 08:32:41;;;;;;;4.97;3.70;;;2.10;99.90;;;;;;5018822;28;20521;-83
2022/03/06 08:35:08;;;;;;;6.07;3.80;;;2.00;99.90;;;;;;4995238;28;20284;-83
2022/03/06 08:37:33;;;;;;;6.23;4.10;;;2.10;99.90;;;;;;5031155;28;20379;-84
2022/03/06 08:39:59;;;;;;;5.40;4.27;;;2.20;99.90;;;;;;5035419;28;20314;-84
2022/03/06 08:42:25;;;;;;;6.30;3.90;;;2.20;99.90;;;;;;5018705;28;20040;-83
2022/03/06 08:44:51;;;;;;;6.03;3.77;;;2.30;99.90;;;;;;5018756;28;20072;-85
2022/03/06 08:47:16;;;;;;;6.53;4.00;;;2.40;99.90;;;;;;4999006;28;20644;-85
2022/03/06 08:49:42;;;;;;;6.27;4.00;;;2.40;99.90;;;;;;5026084;28;20160;-86
2022/03/06 08:52:08;;;;;;;5.87;3.93;;;2.50;99.90;;;;;;5013285;28;20478;-85
2022/03/06 08:54:34;;;;;;;4.33;3.73;;;2.50;99.90;;;;;;5014479;28;20033;-85
2022/03/06 08:57:00;;;;;;;5.00;3.57;;;2.50;99.90;;;;;;4993182;28;20056;-85
2022/03/06 08:59:26;;;;;;;6.80;3.80;;;2.50;99.90;;;;;;4985722;28;20291;-85
2022/03/06 09:01:55;;;;;;;6.20;3.90;;;2.60;99.90;;;;;;5005119;28;20049;-85
2022/03/06 09:04:22;;;;;;;5.00;3.70;;;2.70;99.90;;;;;;5018527;28;20051;-86
2022/03/06 09:06:49;;;;;;;5.37;4.07;;;2.70;99.90;;;;;;5002161;28;20307;-85
2022/03/06 09:09:15;;;;;;;5.27;3.30;;;2.80;99.90;;;;;;5018175;28;20296;-83
2022/03/06 09:11:41;;;;;;;6.03;3.77;;;2.80;99.90;;;;;;4998477;28;20699;-84
2022/03/06 09:14:07;;;;;;;4.60;3.70;;;2.80;99.90;;;;;;5035738;28;20049;-84
2022/03/06 09:16:33;;;;;;;4.43;3.50;;;2.90;99.90;;;;;;5025136;28;20128;-86
2022/03/06 09:18:59;;;;;;;4.03;3.57;;;2.90;99.90;;;;;;5009424;28;20124;-85
2022/03/06 09:21:27;;;;;;;5.33;3.70;;;3.00;99.90;;;;;;5024530;28;20362;-86
2022/03/06 09:23:53;;;;;;;6.77;4.03;;;3.00;99.90;;;;;;5010356;28;20049;-85
2022/03/06 09:26:19;;;;;;;4.47;3.60;;;3.10;99.90;;;;;;5022029;28;20287;-85
2022/03/06 09:28:45;;;;;;;4.17;3.70;;;3.10;99.90;;;;;;5022947;28;20366;-86
2022/03/06 09:31:12;;;;;;;5.70;3.60;;;3.20;99.90;;;;;;5014393;28;20370;-84
2022/03/06 09:33:38;;;;;;;7.50;4.10;;;3.30;99.90;;;;;;5041077;28;20037;-85
2022/03/06 09:36:04;;;;;;;5.23;3.60;;;3.40;99.90;;;;;;5012444;28;20091;-86
2022/03/06 09:38:29;;;;;;;4.23;3.83;;;3.40;99.90;;;;;;5008270;28;20130;-85
2022/03/06 09:41:00;;;;;;;6.43;3.87;;;3.60;99.90;;;;;;5024923;28;20523;-86
2022/03/06 09:43:26;;;;;;;5.30;3.87;;;3.50;99.90;;;;;;5024678;28;20095;-86
2022/03/06 09:46:05;;;;;;;6.63;3.80;;;3.40;99.90;;;;;;5035183;28;20040;-88
2022/03/06 09:48:32;;;;;;;5.27;4.10;;;3.50;99.90;;;;;;5021408;28;20127;-86
2022/03/06 09:50:58;;;;;;;4.17;3.77;;;3.40;99.90;;;;;;5008700;28;20041;-89
2022/03/06 09:53:23;;;;;;;6.93;4.20;;;3.50;99.90;;;;;;5024509;28;20033;-86
2022/03/06 09:55:49;;;;;;;4.20;3.80;;;3.50;99.90;;;;;;5025288;28;20044;-87
2022/03/06 09:58:15;;;;;;;4.00;3.60;;;3.60;99.90;;;;;;5024079;28;20378;-86
2022/03/06 10:00:41;;;;;;;4.07;3.67;;;3.60;99.90;;;;;;5024706;28;20040;-87
2022/03/06 10:03:16;;;;;;;6.37;3.90;;;3.60;99.90;;;;;;5037139;28;20034;-86
2022/03/06 10:05:41;;;;;;;6.57;3.83;;;3.70;99.90;;;;;;5005194;28;20041;-85
2022/03/06 10:08:25;;;;;;;4.73;4.00;;;3.70;99.90;;;;;;5023440;28;20163;-86
2022/03/06 10:11:01;;;;;;;5.20;3.70;;;3.70;97.40;;;;;;5008811;28;20431;-85
2022/03/06 10:13:31;;;;;;;4.03;3.53;;;3.70;99.20;;;;;;5024139;28;20043;-84
2022/03/06 10:15:57;;;;;;;6.40;3.50;;;3.80;99.10;;;;;;5016327;28;20455;-87
2022/03/06 10:18:23;;;;;;;5.43;3.73;;;3.90;96.90;;;;;;5015923;28;20056;-87
2022/03/06 10:20:49;;;;;;;4.63;3.80;;;4.00;98.00;;;;;;5012367;28;20395;-80
2022/03/06 10:23:27;;;;;;;4.17;3.13;;;4.00;96.00;;;;;;5008877;28;20049;-80
2022/03/06 10:26:04;;;;;;;4.53;3.23;;;4.10;94.60;;;;;;5003191;28;20061;-80
2022/03/06 10:28:30;;;;;;;3.97;3.20;;;4.20;93.60;;;;;;5018199;28;20053;-80
2022/03/06 10:31:04;;;;;;;3.70;3.30;;;4.20;94.00;;;;;;5017807;28;20496;-81
2022/03/06 10:33:30;;;;;;;5.13;3.43;;;4.30;94.60;;;;;;5018811;28;20045;-80
2022/03/06 10:35:58;;;;;;;3.80;3.10;;;4.40;94.10;;;;;;5006693;28;20097;-80
2022/03/06 10:38:26;;;;;;;5.07;3.60;;;4.40;92.30;;;;;;5034180;28;20110;-80
2022/03/06 10:40:53;;;;;;;4.77;3.60;;;4.40;92.90;;;;;;5048823;28;20458;-80
2022/03/06 10:43:24;;;;;;;6.60;3.53;;;4.50;91.80;;;;;;5035745;28;20037;-80
2022/03/06 10:46:03;;;;;;;4.97;3.63;;;4.60;92.60;;;;;;5019039;28;20396;-80
2022/03/06 10:48:29;;;;;;;4.63;3.47;;;4.70;91.10;;;;;;5017258;28;20044;-80
2022/03/06 10:51:02;;;;;;;5.30;3.70;;;4.60;90.40;;;;;;5013271;28;20385;-80
2022/03/06 10:53:29;;;;;;;3.90;3.50;;;4.70;91.00;;;;;;5034067;28;20051;-80
2022/03/06 10:56:02;;;;;;;4.57;3.50;;;4.70;90.80;;;;;;5012427;28;20095;-81
2022/03/06 10:58:30;;;;;;;5.53;3.60;;;4.70;88.90;;;;;;5018663;28;20037;-80
2022/03/06 11:00:56;;;;;;;5.93;3.63;;;4.60;85.50;;;;;;4993655;28;20124;-81
2022/03/06 11:03:23;;;;;;;4.57;3.50;;;4.60;88.50;;;;;;5016681;28;20124;-80
2022/03/06 11:05:49;;;;;;;5.30;3.27;;;4.70;88.90;;;;;;5000142;28;20044;-80
2022/03/06 11:08:16;;;;;;;5.77;3.73;;;4.80;89.50;;;;;;5032089;28;20041;-80
2022/03/06 11:10:43;;;;;;;8.23;3.43;;;4.80;89.70;;;;;;5042603;28;20481;-80
2022/03/06 11:13:13;;;;;;;4.47;3.47;;;4.90;88.90;;;;;;5001039;28;20076;-80
2022/03/06 11:15:39;;;;;;;4.80;3.80;;;4.90;88.60;;;;;;5017753;28;20040;-80
2022/03/06 11:18:06;;;;;;;4.33;3.90;;;4.90;89.40;;;;;;5032413;28;20118;-80
2022/03/06 11:20:33;;;;;;;5.07;3.50;;;5.00;88.50;;;;;;5017414;28;20047;-80
2022/03/06 11:23:36;;;;;;;7.33;3.67;;;5.00;87.40;;;;;;5013062;28;20040;-80
2022/03/06 11:26:14;;;;;;;;;;;4.90;85.30;;;;;;5003506;28;20144;-79
2022/03/06 11:29:01;;;;;;;6.23;3.40;;;4.80;85.70;;;;;;5015952;28;19925;-79
2022/03/06 11:31:48;;;;;;;6.37;3.37;;;5.00;85.30;;;;;;5033925;28;20041;-78
2022/03/06 11:34:29;;;;;;;4.67;3.53;;;5.00;85.50;;;;;;5016946;28;20044;-78
2022/03/06 11:36:56;;;;;;;5.03;3.70;;;5.10;85.20;;;;;;5021702;28;20385;-79
2022/03/06 11:39:30;;;;;;;4.53;3.50;;;5.20;87.30;;;;;;5021341;28;20099;-79
2022/03/06 11:42:38;;;;;;;5.30;3.43;;;5.30;86.80;;;;;;5014409;28;20094;-78
2022/03/06 11:45:04;;;;;;;4.10;3.70;;;5.30;86.40;;;;;;5020804;28;20103;-79
2022/03/06 11:47:40;;;;;;;6.70;3.80;;;5.30;87.80;;;;;;5017115;28;20049;-78
2022/03/06 11:50:07;;;;;;;4.33;3.93;;;5.40;86.10;;;;;;5021152;28;20045;-79
2022/03/06 11:52:42;;;;;;;4.90;3.60;;;5.40;87.50;;;;;;5016374;28;20382;-79
2022/03/06 11:55:29;;;;;;;4.40;3.40;;;5.40;85.70;;;;;;5017408;28;20029;-79
2022/03/06 11:57:55;;;;;;;5.23;3.73;;;5.40;83.30;;;;;;5016817;28;20500;-78
2022/03/06 12:00:27;;;;;;;4.80;3.70;;;5.40;87.20;;;;;;4981130;28;20045;-78
2022/03/06 12:02:55;;;;;;;6.17;4.10;;;5.40;85.50;;;;;;5002434;28;20048;-78
2022/03/06 12:05:22;;;;;;;3.80;3.30;;;5.40;86.60;;;;;;4990608;28;20045;-78
2022/03/06 12:07:51;;;;;;;4.50;3.40;;;5.60;86.70;;;;;;4999557;28;20064;-78
2022/03/06 12:10:18;;;;;;;4.73;3.90;;;5.60;85.90;;;;;;5016496;28;20041;-78
2022/03/06 12:12:56;;;;;;;4.80;4.03;;;5.60;86.00;;;;;;5013147;28;20033;-79
2022/03/06 12:15:27;;;;;;;5.40;4.10;;;5.70;85.00;;;;;;5031348;28;20128;-80
2022/03/06 12:17:53;;;;;;;5.20;3.92;;;5.70;87.10;;;;;;5014623;28;20053;-79
2022/03/06 12:20:25;;;;;;;5.13;3.63;;;5.80;87.30;;;;;;5033295;28;20033;-79
2022/03/06 12:23:02;;;;;;;4.78;3.53;;;5.90;86.00;;;;;;4975858;28;20493;-79
2022/03/06 12:25:33;;;;;;;5.80;3.97;;;5.90;85.30;;;;;;5015801;28;20049;-78
2022/03/06 12:28:05;;;;;;;6.70;4.20;;;5.70;84.30;;;;;;5033083;28;20049;-78
2022/03/06 12:30:34;;;;;;;7.75;4.43;;;5.50;84.20;;;;;;5016798;28;20048;-79
2022/03/06 12:33:39;;;;;;;4.97;3.70;;;5.50;86.00;;;;;;4999509;28;20048;-78
2022/03/06 12:36:18;;;;;;;5.53;3.93;;;5.50;84.00;;;;;;4907661;29;20513;-79
2022/03/06 12:38:45;;;;;;;7.83;4.47;;;5.60;85.50;;;;;;4939202;28;20056;-79
2022/03/06 12:41:12;;;;;;;6.03;4.20;;;5.60;84.90;;;;;;4988475;28;20052;-79
2022/03/06 12:44:02;;;;;;;6.73;3.70;;;5.60;85.60;;;;;;5026497;28;20049;-79
2022/03/06 12:46:28;;;;;;;7.57;4.27;;;5.60;84.70;;;;;;5016230;28;20044;-79
2022/03/06 12:48:54;;;;;;;7.23;4.33;;;5.60;85.00;;;;;;5028813;28;20029;-78
2022/03/06 12:51:32;;;;;;;7.30;4.40;;;5.50;85.00;;;;;;4999525;28;20741;-79